createdAt,value
2017-12-16T00:01:14.951Z,23.17
2017-12-16T00:03:42.585Z,20.33
2017-12-16T00:06:10.481Z,20.67
2017-12-16T00:08:38.139Z,19.57
2017-12-16T00:11:05.735Z,20.03
2017-12-16T00:13:34.108Z,22.57
2017-12-16T00:16:02.482Z,25.57
2017-12-16T00:18:30.084Z,28.00
2017-12-16T00:20:57.659Z,27.70
2017-12-16T00:23:25.234Z,29.23
2017-12-16T00:25:52.827Z,28.70
2017-12-16T00:28:20.390Z,27.40
2017-12-16T00:30:47.961Z,27.37
2017-12-16T00:33:16.298Z,27.33
2017-12-16T00:35:43.873Z,29.20
2017-12-16T00:38:11.441Z,26.33
2017-12-16T00:40:39.046Z,28.80
2017-12-16T00:43:06.630Z,29.20
2017-12-16T00:45:34.377Z,27.90
2017-12-16T00:48:01.973Z,27.97
2017-12-16T00:50:29.535Z,26.37
2017-12-16T00:52:57.978Z,25.80
2017-12-16T00:55:25.535Z,27.97
2017-12-16T00:57:53.099Z,29.67
2017-12-16T01:00:20.726Z,26.17
2017-12-16T01:02:48.301Z,26.37
2017-12-16T01:05:15.888Z,25.83
2017-12-16T01:07:43.489Z,24.70
2017-12-16T01:10:11.103Z,25.17
2017-12-16T01:12:39.222Z,25.87
2017-12-16T01:15:06.902Z,23.93
2017-12-16T01:17:34.514Z,24.23
2017-12-16T01:20:02.158Z,23.90
2017-12-16T01:22:29.741Z,25.30
2017-12-16T01:24:57.302Z,25.77
2017-12-16T01:27:25.643Z,23.57
2017-12-16T01:29:53.282Z,24.53
2017-12-16T01:32:20.855Z,24.37
2017-12-16T01:35:01.107Z,25.77
2017-12-16T01:37:40.365Z,27.67
2017-12-16T01:40:08.694Z,31.77
2017-12-16T01:42:36.263Z,37.60
2017-12-16T01:45:04.581Z,32.93
2017-12-16T01:47:33.016Z,31.37
2017-12-16T01:50:00.603Z,29.07
2017-12-16T01:52:28.923Z,27.50
2017-12-16T01:54:56.486Z,26.00
2017-12-16T01:57:24.050Z,23.10
2017-12-16T01:59:51.750Z,22.83
2017-12-16T02:02:19.322Z,21.80
2017-12-16T02:04:46.881Z,22.17
2017-12-16T02:07:14.461Z,19.67
2017-12-16T02:09:42.872Z,19.63
2017-12-16T02:12:10.453Z,21.40
2017-12-16T02:14:38.165Z,21.20
2017-12-16T02:17:06.535Z,19.17
2017-12-16T02:19:34.081Z,19.60
2017-12-16T02:22:01.654Z,20.40
2017-12-16T02:24:29.261Z,21.60
2017-12-16T02:26:56.818Z,21.30
2017-12-16T02:29:24.374Z,20.27
2017-12-16T02:31:51.965Z,20.10
2017-12-16T02:34:19.527Z,20.27
2017-12-16T02:36:47.462Z,19.90
2017-12-16T02:39:15.008Z,19.97
2017-12-16T02:41:43.303Z,21.23
2017-12-16T02:44:10.973Z,20.10
2017-12-16T02:46:39.278Z,19.00
2017-12-16T02:49:06.823Z,19.87
2017-12-16T02:51:34.377Z,18.03
2017-12-16T02:54:01.939Z,19.53
2017-12-16T02:56:29.508Z,18.87
2017-12-16T02:58:57.090Z,20.00
2017-12-16T03:01:24.822Z,19.57
2017-12-16T03:03:52.389Z,19.97
2017-12-16T03:06:19.938Z,19.50
2017-12-16T03:08:47.525Z,20.37
2017-12-16T03:11:15.161Z,21.23
2017-12-16T03:13:43.486Z,20.23
2017-12-16T03:16:11.043Z,19.60
2017-12-16T03:18:38.590Z,20.83
2017-12-16T03:21:06.145Z,21.77
2017-12-16T03:23:33.706Z,21.70
2017-12-16T03:26:01.269Z,20.90
2017-12-16T03:28:28.850Z,20.20
2017-12-16T03:30:56.398Z,23.13
2017-12-16T03:33:23.963Z,21.97
2017-12-16T03:35:51.519Z,22.03
2017-12-16T03:38:19.080Z,21.63
2017-12-16T03:40:46.637Z,21.03
2017-12-16T03:43:14.197Z,21.60
2017-12-16T03:45:41.749Z,21.50
2017-12-16T03:48:09.294Z,20.83
2017-12-16T03:50:36.858Z,22.07
2017-12-16T03:53:05.246Z,19.90
2017-12-16T03:55:32.818Z,22.17
2017-12-16T03:58:00.377Z,20.93
2017-12-16T04:00:27.941Z,21.20
2017-12-16T04:02:55.503Z,22.17
2017-12-16T04:05:23.057Z,22.10
2017-12-16T04:07:50.596Z,20.33
2017-12-16T04:10:18.289Z,20.30
2017-12-16T04:12:45.865Z,21.67
2017-12-16T04:15:13.409Z,23.23
2017-12-16T04:17:40.970Z,22.03
2017-12-16T04:20:08.508Z,19.90
2017-12-16T04:22:36.056Z,19.80
2017-12-16T04:25:03.595Z,21.67
2017-12-16T04:27:31.145Z,22.97
2017-12-16T04:29:59.465Z,23.97
2017-12-16T04:32:27.047Z,21.50
2017-12-16T04:34:54.606Z,24.83
2017-12-16T04:37:22.205Z,24.70
2017-12-16T04:39:50.550Z,22.53
2017-12-16T04:42:18.122Z,22.83
2017-12-16T04:44:45.690Z,23.30
2017-12-16T04:47:13.245Z,23.03
2017-12-16T04:49:40.832Z,23.00
2017-12-16T04:52:08.401Z,22.00
2017-12-16T04:54:36.004Z,23.03
2017-12-16T04:57:03.552Z,23.20
2017-12-16T04:59:31.119Z,22.70
2017-12-16T05:01:58.746Z,22.77
2017-12-16T05:04:26.337Z,25.27
2017-12-16T05:06:53.899Z,23.63
2017-12-16T05:09:21.484Z,26.80
2017-12-16T05:11:49.053Z,24.13
2017-12-16T05:14:16.626Z,27.13
2017-12-16T05:16:44.310Z,26.73
2017-12-16T05:19:11.864Z,26.27
2017-12-16T05:21:40.020Z,24.30
2017-12-16T05:24:07.557Z,26.30
2017-12-16T05:26:36.085Z,25.83
2017-12-16T05:29:03.642Z,27.50
2017-12-16T05:31:31.477Z,25.60
2017-12-16T05:33:59.065Z,27.97
2017-12-16T05:36:27.397Z,26.40
2017-12-16T05:38:54.944Z,27.27
2017-12-16T05:41:22.545Z,28.70
2017-12-16T05:43:50.135Z,24.87
2017-12-16T05:46:18.499Z,23.80
2017-12-16T05:48:46.822Z,23.87
2017-12-16T05:51:14.376Z,24.45
2017-12-16T05:53:42.245Z,25.07
2017-12-16T05:56:09.813Z,23.10
2017-12-16T05:58:37.714Z,22.90
2017-12-16T06:01:05.272Z,23.50
2017-12-16T06:03:32.843Z,22.60
2017-12-16T06:06:00.414Z,21.77
2017-12-16T06:08:28.857Z,21.60
2017-12-16T06:10:56.449Z,18.90
2017-12-16T06:13:25.684Z,19.47
2017-12-16T06:15:53.241Z,17.80
2017-12-16T06:18:20.852Z,18.07
2017-12-16T06:20:48.413Z,18.53
2017-12-16T06:23:15.962Z,20.43
2017-12-16T06:25:43.608Z,19.73
2017-12-16T06:28:11.145Z,19.20
2017-12-16T06:30:38.719Z,20.07
2017-12-16T06:33:06.278Z,19.80
2017-12-16T06:35:34.677Z,20.27
2017-12-16T06:38:02.238Z,20.93
2017-12-16T06:40:29.860Z,20.97
2017-12-16T06:42:57.469Z,18.73
2017-12-16T06:45:25.050Z,19.00
2017-12-16T06:47:52.612Z,20.40
2017-12-16T06:50:21.057Z,21.80
2017-12-16T06:52:48.608Z,20.53
2017-12-16T06:55:16.173Z,23.35
2017-12-16T06:57:43.730Z,22.27
2017-12-16T07:00:11.290Z,19.27
2017-12-16T07:02:38.907Z,19.47
2017-12-16T07:05:07.226Z,20.00
2017-12-16T07:07:34.890Z,20.80
2017-12-16T07:10:02.462Z,20.57
2017-12-16T07:12:30.013Z,19.13
2017-12-16T07:14:57.585Z,19.53
2017-12-16T07:17:25.835Z,19.83
2017-12-16T07:19:53.399Z,18.67
2017-12-16T07:22:21.006Z,19.37
2017-12-16T07:24:48.705Z,19.37
2017-12-16T07:27:17.001Z,19.20
2017-12-16T07:29:44.574Z,21.40
2017-12-16T07:32:13.151Z,20.90
2017-12-16T07:34:41.575Z,20.30
2017-12-16T07:37:09.129Z,22.57
2017-12-16T07:39:36.710Z,22.73
2017-12-16T07:42:04.349Z,23.10
2017-12-16T07:44:31.942Z,26.77
2017-12-16T07:46:59.509Z,26.67
2017-12-16T07:49:27.842Z,24.80
2017-12-16T07:51:55.429Z,26.77
2017-12-16T07:54:23.007Z,23.90
2017-12-16T07:56:51.380Z,24.90
2017-12-16T07:59:19.705Z,25.53
2017-12-16T08:01:47.284Z,24.70
2017-12-16T08:04:14.862Z,23.53
2017-12-16T08:06:42.445Z,23.60
2017-12-16T08:09:10.795Z,25.33
2017-12-16T08:11:38.486Z,25.13
2017-12-16T08:14:06.062Z,24.03
2017-12-16T08:16:34.395Z,23.53
2017-12-16T08:19:01.987Z,23.13
2017-12-16T08:21:29.534Z,22.77
2017-12-16T08:23:57.114Z,22.93
2017-12-16T08:26:25.436Z,21.97
2017-12-16T08:28:53.025Z,23.10
2017-12-16T08:31:20.657Z,22.77
2017-12-16T08:33:48.230Z,20.40
2017-12-16T08:36:15.806Z,23.47
2017-12-16T08:38:43.426Z,23.80
2017-12-16T08:41:12.521Z,22.83
2017-12-16T08:43:40.092Z,22.50
2017-12-16T08:46:07.660Z,23.60
2017-12-16T08:48:35.236Z,24.37
2017-12-16T08:51:02.810Z,22.43
2017-12-16T08:53:30.383Z,21.67
2017-12-16T08:55:58.002Z,24.27
2017-12-16T08:58:25.557Z,24.40
2017-12-16T09:00:53.174Z,23.53
2017-12-16T09:03:21.594Z,25.23
2017-12-16T09:05:49.162Z,23.07
2017-12-16T09:08:16.740Z,24.87
2017-12-16T09:10:44.344Z,23.50
2017-12-16T09:13:11.946Z,23.17
2017-12-16T09:15:39.502Z,24.37
2017-12-16T09:18:07.102Z,23.97
2017-12-16T09:20:34.670Z,22.23
2017-12-16T09:23:02.328Z,23.33
2017-12-16T09:25:29.883Z,21.87
2017-12-16T09:27:57.471Z,22.50
2017-12-16T09:30:25.802Z,21.57
2017-12-16T09:32:53.414Z,23.40
2017-12-16T09:35:21.736Z,22.90
2017-12-16T09:37:49.310Z,20.77
2017-12-16T09:40:16.893Z,22.37
2017-12-16T09:42:44.478Z,21.27
2017-12-16T09:45:12.789Z,19.53
2017-12-16T09:47:40.500Z,20.93
2017-12-16T09:50:08.072Z,18.83
2017-12-16T09:52:36.411Z,18.63
2017-12-16T09:55:04.773Z,22.00
2017-12-16T09:57:32.346Z,20.80
2017-12-16T09:59:59.939Z,23.30
2017-12-16T10:02:27.509Z,19.70
2017-12-16T10:04:55.080Z,18.90
2017-12-16T10:07:23.439Z,17.37
2017-12-16T10:09:51.004Z,17.60
2017-12-16T10:12:18.578Z,27.07
2017-12-16T10:14:46.942Z,17.03
2017-12-16T10:17:14.614Z,16.87
2017-12-16T10:19:42.946Z,15.90
2017-12-16T10:22:10.525Z,15.30
2017-12-16T10:24:38.990Z,14.30
2017-12-16T10:27:06.578Z,15.33
2017-12-16T10:29:34.174Z,13.93
2017-12-16T10:32:01.804Z,14.17
2017-12-16T10:34:29.403Z,14.97
2017-12-16T10:36:56.970Z,13.10
2017-12-16T10:39:24.562Z,13.43
2017-12-16T10:41:52.919Z,12.40
2017-12-16T10:44:20.533Z,12.13
2017-12-16T10:46:48.090Z,11.80
2017-12-16T10:49:15.683Z,12.20
2017-12-16T10:51:44.023Z,11.43
2017-12-16T10:54:11.646Z,11.83
2017-12-16T10:56:39.227Z,11.33
2017-12-16T10:59:06.799Z,10.93
2017-12-16T11:01:34.428Z,10.83
2017-12-16T11:04:01.998Z,10.47
2017-12-16T11:06:29.629Z,9.10
2017-12-16T11:08:57.211Z,9.10
2017-12-16T11:11:25.767Z,9.47
2017-12-16T11:13:54.080Z,10.20
2017-12-16T11:16:21.656Z,10.10
2017-12-16T11:18:49.231Z,10.53
2017-12-16T11:21:16.818Z,11.27
2017-12-16T11:23:44.396Z,11.17
2017-12-16T11:26:11.977Z,10.57
2017-12-16T11:28:39.561Z,10.43
2017-12-16T11:31:07.232Z,8.20
2017-12-16T11:33:34.819Z,10.20
2017-12-16T11:36:02.379Z,7.27
2017-12-16T11:38:29.961Z,6.43
2017-12-16T11:40:58.281Z,7.17
2017-12-16T11:43:25.863Z,6.37
2017-12-16T11:45:53.449Z,6.47
2017-12-16T11:48:21.105Z,6.43
2017-12-16T11:50:48.682Z,6.77
2017-12-16T11:53:17.024Z,6.90
2017-12-16T11:55:44.628Z,6.70
2017-12-16T11:58:24.778Z,6.80
2017-12-16T12:00:52.502Z,7.27
2017-12-16T12:03:21.424Z,5.63
2017-12-16T12:05:49.022Z,6.13
2017-12-16T12:08:16.637Z,5.23
2017-12-16T12:10:44.181Z,5.00
2017-12-16T12:13:11.776Z,6.40
2017-12-16T12:15:40.106Z,4.50
2017-12-16T12:18:07.743Z,5.80
2017-12-16T12:20:35.337Z,7.23
2017-12-16T12:23:02.917Z,6.70
2017-12-16T12:25:30.528Z,26.80
2017-12-16T12:27:58.219Z,7.60
2017-12-16T12:30:26.099Z,6.83
2017-12-16T12:32:54.487Z,7.70
2017-12-16T12:35:22.041Z,6.77
2017-12-16T12:37:54.544Z,5.93
2017-12-16T12:40:47.236Z,6.10
2017-12-16T13:25:45.448Z,6.40
2017-12-16T13:28:13.009Z,5.30
2017-12-16T13:30:40.666Z,6.07
2017-12-16T13:33:08.230Z,6.30
2017-12-16T13:35:35.882Z,5.93
2017-12-16T13:38:03.444Z,5.40
2017-12-16T13:40:31.037Z,5.77
2017-12-16T13:42:59.386Z,6.23
2017-12-16T13:45:27.118Z,6.27
2017-12-16T13:47:54.712Z,6.03
2017-12-16T13:50:22.272Z,5.90
2017-12-16T13:52:50.601Z,5.63
2017-12-16T13:55:19.081Z,7.00
2017-12-16T13:57:47.559Z,6.10
2017-12-16T14:00:15.333Z,5.90
2017-12-16T14:02:42.928Z,7.10
2017-12-16T14:05:10.493Z,6.70
2017-12-16T14:07:38.157Z,6.77
2017-12-16T14:10:05.721Z,6.03
2017-12-16T14:12:33.286Z,5.90
2017-12-16T14:15:00.910Z,5.40
2017-12-16T14:17:29.390Z,5.93
2017-12-16T14:19:56.982Z,4.80
2017-12-16T14:22:24.558Z,4.77
2017-12-16T14:24:52.898Z,4.40
2017-12-16T14:27:20.455Z,4.40
2017-12-16T14:29:48.010Z,4.37
2017-12-16T14:32:15.793Z,4.50
2017-12-16T14:34:43.413Z,5.30
2017-12-16T14:37:11.801Z,5.00
2017-12-16T14:39:40.170Z,4.20
2017-12-16T14:42:08.599Z,4.07
2017-12-16T14:44:36.191Z,3.60
2017-12-16T14:47:03.823Z,4.90
2017-12-16T14:49:31.371Z,4.63
2017-12-16T14:51:59.073Z,2.80
2017-12-16T14:54:26.628Z,3.80
2017-12-16T14:56:54.240Z,3.20
2017-12-16T14:59:21.810Z,4.67
2017-12-16T15:01:49.405Z,4.30
2017-12-16T15:04:16.995Z,3.23
2017-12-16T15:06:45.381Z,3.63
2017-12-16T15:09:13.736Z,3.47
2017-12-16T15:11:41.317Z,3.37
2017-12-16T15:14:09.737Z,3.73
2017-12-16T15:16:37.487Z,3.20
2017-12-16T15:19:05.111Z,2.73
2017-12-16T15:21:32.722Z,3.50
2017-12-16T15:24:00.321Z,3.23
2017-12-16T15:26:27.914Z,3.77
2017-12-16T15:28:56.280Z,2.93
2017-12-16T15:31:24.642Z,3.60
2017-12-16T15:33:53.029Z,2.50
2017-12-16T15:36:20.630Z,2.53
2017-12-16T15:38:48.964Z,2.47
2017-12-16T15:41:16.564Z,3.30
2017-12-16T15:43:44.933Z,3.80
2017-12-16T15:46:13.298Z,3.03
2017-12-16T15:48:40.882Z,6.20
2017-12-16T15:51:09.248Z,3.57
2017-12-16T15:53:38.530Z,3.10
2017-12-16T15:56:06.138Z,3.30
2017-12-16T15:58:33.726Z,3.10
2017-12-16T16:01:01.326Z,3.17
2017-12-16T16:03:28.922Z,2.50
2017-12-16T16:05:56.532Z,3.17
2017-12-16T16:08:24.109Z,3.90
2017-12-16T16:10:51.745Z,3.93
2017-12-16T16:13:19.329Z,6.50
2017-12-16T16:15:46.884Z,3.33
2017-12-16T16:18:14.462Z,2.70
2017-12-16T16:20:42.797Z,3.27
2017-12-16T16:23:10.439Z,3.03
2017-12-16T16:25:38.003Z,3.10
2017-12-16T16:28:05.598Z,3.97
2017-12-16T16:30:33.194Z,4.53
2017-12-16T16:33:01.556Z,4.90
2017-12-16T16:35:29.173Z,4.17
2017-12-16T16:37:56.737Z,5.47
2017-12-16T16:40:24.350Z,5.70
2017-12-16T16:42:52.692Z,3.70
2017-12-16T16:45:20.277Z,3.47
2017-12-16T16:47:47.851Z,4.47
2017-12-16T16:50:16.190Z,4.20
2017-12-16T16:52:43.761Z,4.80
2017-12-16T16:55:11.346Z,4.13
2017-12-16T16:57:38.934Z,4.43
2017-12-16T17:00:06.501Z,4.77
2017-12-16T17:02:34.074Z,4.17
2017-12-16T17:05:01.666Z,3.90
2017-12-16T17:07:29.212Z,3.40
2017-12-16T17:09:56.842Z,3.70
2017-12-16T17:12:24.446Z,4.00
2017-12-16T17:14:52.028Z,3.77
2017-12-16T17:17:19.617Z,4.53
2017-12-16T17:19:47.934Z,4.43
2017-12-16T17:22:15.574Z,4.30
2017-12-16T17:24:43.121Z,4.50
2017-12-16T17:27:11.482Z,4.30
2017-12-16T17:29:39.869Z,3.63
2017-12-16T17:32:08.194Z,3.90
2017-12-16T17:34:35.804Z,3.70
2017-12-16T17:37:04.130Z,4.03
2017-12-16T17:39:31.985Z,5.53
2017-12-16T17:41:59.603Z,6.12
2017-12-16T17:44:27.164Z,6.03
2017-12-16T17:46:54.750Z,4.60
2017-12-16T17:49:22.339Z,4.53
2017-12-16T17:51:49.917Z,4.40
2017-12-16T17:54:17.521Z,5.07
2017-12-16T17:56:45.915Z,4.70
2017-12-16T17:59:13.481Z,5.70
2017-12-16T18:01:41.074Z,5.80
2017-12-16T18:04:08.646Z,6.50
2017-12-16T18:06:36.251Z,5.73
2017-12-16T18:09:03.846Z,5.10
2017-12-16T18:11:31.421Z,5.83
2017-12-16T18:13:59.407Z,6.03
2017-12-16T18:16:27.053Z,5.60
2017-12-16T18:18:54.661Z,5.47
2017-12-16T18:21:23.021Z,5.90
2017-12-16T18:23:50.654Z,6.03
2017-12-16T18:26:18.262Z,5.97
2017-12-16T18:28:46.589Z,6.70
2017-12-16T18:31:14.162Z,6.60
2017-12-16T18:33:41.924Z,6.97
2017-12-16T18:36:09.490Z,7.87
2017-12-16T18:38:37.094Z,6.90
2017-12-16T18:41:05.449Z,7.47
2017-12-16T18:43:33.066Z,8.47
2017-12-16T18:46:00.671Z,7.97
2017-12-16T18:48:28.246Z,7.27
2017-12-16T18:50:56.585Z,6.60
2017-12-16T18:53:24.205Z,8.20
2017-12-16T18:55:52.734Z,8.00
2017-12-16T18:58:20.320Z,7.50
2017-12-16T19:00:47.919Z,6.30
2017-12-16T19:03:15.543Z,6.37
2017-12-16T19:05:43.235Z,7.17
2017-12-16T19:08:11.608Z,8.33
2017-12-16T19:10:39.978Z,11.40
2017-12-16T19:13:08.770Z,5.33
2017-12-16T19:15:37.186Z,8.70
2017-12-16T19:18:04.759Z,7.77
2017-12-16T19:20:33.202Z,9.10
2017-12-16T19:23:01.149Z,7.83
2017-12-16T19:25:32.271Z,8.37
2017-12-16T19:28:01.587Z,8.43
2017-12-16T19:30:33.640Z,7.80
2017-12-16T19:33:03.523Z,8.90
2017-12-16T19:35:31.227Z,8.33
2017-12-16T19:38:00.636Z,8.40
2017-12-16T19:40:29.983Z,9.87
2017-12-16T19:42:57.591Z,8.30
2017-12-16T19:45:25.133Z,9.77
2017-12-16T19:47:52.716Z,10.23
2017-12-16T19:50:20.309Z,9.43
2017-12-16T19:52:48.686Z,10.80
2017-12-16T19:55:18.185Z,10.07
2017-12-16T19:57:49.240Z,10.07
2017-12-16T20:00:21.864Z,11.00
2017-12-16T20:02:51.831Z,8.00
2017-12-16T20:05:24.195Z,9.93
2017-12-16T20:07:52.633Z,8.90
2017-12-16T20:10:20.924Z,9.30
2017-12-16T20:12:48.503Z,9.57
2017-12-16T20:15:17.436Z,9.47
2017-12-16T20:17:45.025Z,10.13
2017-12-16T20:20:12.615Z,9.57
2017-12-16T20:22:40.197Z,11.17
2017-12-16T20:25:08.544Z,10.07
2017-12-16T20:27:36.103Z,11.90
2017-12-16T20:30:03.689Z,12.00
2017-12-16T20:32:32.749Z,11.60
2017-12-16T20:35:03.272Z,11.90
2017-12-16T20:37:34.518Z,12.73
2017-12-16T20:40:02.096Z,13.13
2017-12-16T20:42:29.690Z,12.70
2017-12-16T20:44:58.023Z,13.90
2017-12-16T20:47:25.614Z,13.27
2017-12-16T20:49:53.207Z,13.50
2017-12-16T20:52:20.784Z,14.80
2017-12-16T20:54:48.442Z,16.13
2017-12-16T20:57:16.026Z,16.97
2017-12-16T20:59:43.645Z,16.40
2017-12-16T21:02:12.015Z,16.30
2017-12-16T21:04:40.617Z,16.77
2017-12-16T21:07:11.567Z,14.80
2017-12-16T21:09:40.501Z,14.73
2017-12-16T21:12:08.078Z,15.77
2017-12-16T21:14:36.800Z,17.13
2017-12-16T21:17:04.439Z,16.83
2017-12-16T21:19:32.084Z,17.43
2017-12-16T21:21:59.667Z,17.10
2017-12-16T21:24:28.053Z,19.27
2017-12-16T21:26:56.416Z,15.40
2017-12-16T21:29:24.028Z,15.47
2017-12-16T21:31:51.612Z,15.33
2017-12-16T21:34:19.203Z,16.70
2017-12-16T21:36:47.121Z,17.97
2017-12-16T21:39:15.086Z,17.20
2017-12-16T21:41:43.747Z,16.30
2017-12-16T21:44:16.525Z,17.07
2017-12-16T21:46:46.021Z,17.70
2017-12-16T21:49:15.497Z,16.17
2017-12-16T21:51:44.101Z,15.97
2017-12-16T21:54:14.707Z,15.23
2017-12-16T21:56:43.641Z,16.20
2017-12-16T21:59:12.249Z,14.13
2017-12-16T22:01:41.243Z,16.63
2017-12-16T22:04:08.859Z,15.90
2017-12-16T22:06:38.334Z,16.40
2017-12-16T22:09:08.536Z,16.80
2017-12-16T22:11:36.182Z,16.07
2017-12-16T22:14:04.522Z,15.47
2017-12-16T22:16:32.794Z,17.90
2017-12-16T22:19:00.370Z,17.50
2017-12-16T22:21:27.963Z,17.03
2017-12-16T22:23:56.189Z,17.73
2017-12-16T22:26:23.812Z,17.80
2017-12-16T22:28:51.402Z,17.60
2017-12-16T22:31:19.001Z,17.97
2017-12-16T22:33:47.397Z,18.50
2017-12-16T22:36:16.661Z,19.00
2017-12-16T22:38:44.285Z,19.17
2017-12-16T22:41:11.943Z,19.43
2017-12-16T22:43:39.662Z,18.97
2017-12-16T22:46:07.223Z,21.17
2017-12-16T22:48:34.810Z,19.83
2017-12-16T22:51:03.173Z,17.27
2017-12-16T22:53:31.573Z,19.27
2017-12-16T22:55:59.113Z,19.10
2017-12-16T22:58:27.495Z,21.07
2017-12-16T23:00:55.889Z,19.77
2017-12-16T23:03:23.458Z,20.40
2017-12-16T23:05:51.061Z,21.07
2017-12-16T23:08:18.605Z,20.87
2017-12-16T23:10:46.189Z,20.80
2017-12-16T23:13:15.692Z,18.50
2017-12-16T23:15:43.258Z,20.37
2017-12-16T23:18:10.834Z,19.30
2017-12-16T23:20:38.409Z,20.30
2017-12-16T23:23:06.784Z,20.97
2017-12-16T23:25:35.110Z,20.97
2017-12-16T23:28:02.707Z,19.97
2017-12-16T23:30:30.262Z,20.40
2017-12-16T23:32:57.850Z,18.87
2017-12-16T23:35:26.242Z,22.10
2017-12-16T23:37:54.592Z,21.00
2017-12-16T23:40:22.172Z,22.20
2017-12-16T23:42:50.542Z,18.97
2017-12-16T23:45:18.092Z,16.90
2017-12-16T23:47:46.437Z,16.83
2017-12-16T23:50:14.020Z,18.40
2017-12-16T23:52:41.591Z,20.10
2017-12-16T23:55:09.206Z,20.77
2017-12-16T23:57:36.794Z,19.50
